Weather at Barra Airport

Public forecast

Using degrees Celsius for public forecast. Weather courtesy of forecast.io.

Closest aviation weather report (METAR) to Barra Airport

Closest report is Benbecula Airport, 27.6 nm (51.2 km) N.

2024/05/22 04:20 (retrieved 18 minutes ago)

EGPL 220420Z AUTO 01009KT 9999 OVC001/// 12/11 Q1012

Closest aviation forecast (TAF) to Barra Airport

Forecast is more than 6 hours old.

Closest forecast is RAF Waddington, 331.6 nm (614.0 km) SE.

2024/05/21 18:42 (retrieved 10 hours ago)

TAF EGXW 211658Z 2118/2212 CNL